Time;durP1;ratioP1;P1;durP2;ratioP2;P2;SDS_P1;SDS_P2;PMS_P1;PMS_P2;Temp;Humidity;BMP_temperature;BMP_pressure;BME280_temperature;BME280_humidity;BME280_pressure;Samples;Min_cycle;Max_cycle;Signal;HPM_P1;HPM_P2
2021/05/04 00:03:00;;;;;;;3.45;1.77;;;15.20;46.50;;;;;;6131628;29;20379;-78
2021/05/04 00:06:01;;;;;;;2.05;1.60;;;15.20;46.70;;;;;;6115946;29;20040;-78
2021/05/04 00:09:04;;;;;;;2.97;1.73;;;15.20;46.80;;;;;;6115993;29;20399;-78
2021/05/04 00:12:05;;;;;;;3.25;1.83;;;15.20;46.90;;;;;;6115588;29;20071;-78
2021/05/04 00:15:07;;;;;;;2.63;1.60;;;15.20;47.00;;;;;;6100417;29;20031;-78
2021/05/04 00:18:08;;;;;;;3.50;2.00;;;15.20;47.50;;;;;;6132421;29;20053;-78
2021/05/04 00:21:09;;;;;;;2.78;2.00;;;15.20;47.70;;;;;;6131904;29;20032;-78
2021/05/04 00:24:10;;;;;;;4.55;2.58;;;15.20;48.00;;;;;;6116115;29;20028;-78
2021/05/04 00:27:11;;;;;;;4.03;2.17;;;15.10;48.30;;;;;;6115716;29;20304;-78
2021/05/04 00:30:14;;;;;;;3.25;2.40;;;15.10;48.80;;;;;;6116079;29;20042;-78
2021/05/04 00:33:15;;;;;;;3.60;2.22;;;15.10;49.30;;;;;;6115613;29;20031;-77
2021/05/04 00:36:16;;;;;;;3.90;2.40;;;15.00;49.70;;;;;;6115818;29;20070;-77
2021/05/04 00:39:17;;;;;;;4.85;2.03;;;14.90;49.90;;;;;;6130460;29;20443;-78
2021/05/04 00:42:19;;;;;;;3.53;1.85;;;14.80;50.10;;;;;;6133732;29;20119;-78
2021/05/04 00:45:20;;;;;;;2.50;2.28;;;14.80;50.10;;;;;;6136251;29;20422;-78
2021/05/04 00:48:21;;;;;;;3.72;2.00;;;14.70;50.20;;;;;;6139678;29;20087;-78
2021/05/04 00:51:22;;;;;;;2.22;1.83;;;14.70;50.20;;;;;;6140914;29;20119;-78
2021/05/04 00:54:25;;;;;;;3.88;2.10;;;14.70;50.30;;;;;;6129668;29;20046;-77
2021/05/04 00:57:26;;;;;;;2.78;1.80;;;14.70;50.40;;;;;;6123928;29;20038;-78
2021/05/04 01:00:28;;;;;;;2.88;1.90;;;14.60;50.40;;;;;;6118921;29;20052;-78
2021/05/04 01:03:29;;;;;;;5.75;2.55;;;14.60;50.40;;;;;;6115584;29;20519;-78
2021/05/04 01:06:30;;;;;;;3.05;1.85;;;14.60;50.40;;;;;;6131697;29;20033;-78
2021/05/04 01:09:33;;;;;;;3.08;2.05;;;14.60;50.50;;;;;;6118392;29;20106;-79
2021/05/04 01:12:34;;;;;;;5.45;1.95;;;14.60;50.50;;;;;;6119044;29;20526;-78
2021/05/04 01:15:36;;;;;;;2.40;1.90;;;14.50;50.80;;;;;;6118582;29;20095;-77
2021/05/04 01:18:36;;;;;;;3.28;2.20;;;14.50;50.90;;;;;;6122828;29;20042;-77
2021/05/04 01:21:38;;;;;;;3.22;2.22;;;14.50;51.20;;;;;;6135962;29;20023;-78
2021/05/04 01:24:39;;;;;;;3.20;2.30;;;14.40;51.10;;;;;;6139241;29;20050;-79
2021/05/04 01:27:40;;;;;;;3.60;2.15;;;14.40;51.30;;;;;;6106473;29;20367;-78
2021/05/04 01:30:41;;;;;;;5.72;2.13;;;14.40;51.50;;;;;;6132792;29;20074;-78
2021/05/04 01:33:42;;;;;;;4.97;2.22;;;14.40;51.70;;;;;;6130960;29;20067;-77
2021/05/04 01:36:43;;;;;;;4.03;2.47;;;14.30;51.80;;;;;;6114386;29;20032;-78
2021/05/04 01:39:48;;;;;;;3.63;2.25;;;14.40;51.80;;;;;;6114311;29;20028;-77
2021/05/04 01:42:49;;;;;;;2.40;1.90;;;14.40;51.80;;;;;;6129698;29;20047;-78
2021/05/04 01:45:50;;;;;;;3.72;2.40;;;14.30;51.80;;;;;;6113852;29;20036;-78
2021/05/04 01:48:51;;;;;;;6.45;2.30;;;14.30;52.00;;;;;;6128575;29;20046;-78
2021/05/04 01:51:55;;;;;;;3.08;2.08;;;14.30;52.00;;;;;;6114000;29;20067;-78
2021/05/04 01:54:56;;;;;;;10.02;2.35;;;14.30;52.00;;;;;;6113963;29;20032;-78
2021/05/04 01:57:57;;;;;;;3.88;2.10;;;14.30;52.00;;;;;;6114162;29;20459;-79
2021/05/04 02:00:58;;;;;;;3.78;2.30;;;14.30;52.00;;;;;;6113531;29;20043;-78
2021/05/04 02:03:59;;;;;;;3.22;2.35;;;14.30;51.90;;;;;;6113584;29;20130;-78
2021/05/04 02:07:03;;;;;;;3.72;2.22;;;14.30;52.00;;;;;;6113850;29;20094;-77
2021/05/04 02:10:05;;;;;;;4.80;2.60;;;14.30;52.20;;;;;;6113829;29;20032;-77
2021/05/04 02:13:07;;;;;;;2.95;2.20;;;14.30;52.20;;;;;;6129429;29;20036;-77
2021/05/04 02:16:08;;;;;;;3.60;2.65;;;14.30;52.30;;;;;;6130813;29;20107;-78
2021/05/04 02:19:09;;;;;;;7.72;2.45;;;14.20;52.30;;;;;;6113089;29;20032;-78
2021/05/04 02:22:10;;;;;;;3.28;2.22;;;14.20;52.40;;;;;;6113994;29;20470;-79
2021/05/04 02:25:12;;;;;;;3.25;1.90;;;14.20;52.70;;;;;;6130168;29;20031;-78
2021/05/04 02:28:13;;;;;;;4.20;2.55;;;14.20;52.80;;;;;;6128857;29;20098;-77
2021/05/04 02:31:14;;;;;;;3.13;2.00;;;14.10;52.90;;;;;;6097530;29;20457;-78
2021/05/04 02:34:16;;;;;;;3.92;2.40;;;14.10;53.00;;;;;;6112738;29;20127;-77
2021/05/04 02:37:17;;;;;;;7.30;3.25;;;14.10;52.80;;;;;;6112902;29;20036;-77
2021/05/04 02:40:18;;;;;;;5.13;2.40;;;14.00;52.90;;;;;;6113669;29;20039;-78
2021/05/04 02:43:19;;;;;;;4.53;2.30;;;14.00;52.70;;;;;;6117881;29;20038;-79
2021/05/04 02:46:20;;;;;;;4.47;2.03;;;14.00;52.50;;;;;;6133971;29;20039;-77
2021/05/04 02:49:23;;;;;;;3.75;2.05;;;14.00;52.10;;;;;;6118044;29;20073;-77
2021/05/04 02:52:24;;;;;;;3.67;1.95;;;14.00;51.60;;;;;;6117600;29;20046;-77
2021/05/04 02:55:25;;;;;;;3.97;2.13;;;13.90;51.30;;;;;;6133254;29;20518;-77
2021/05/04 02:58:26;;;;;;;4.65;1.98;;;13.90;51.10;;;;;;6117607;29;20058;-77
2021/05/04 03:01:28;;;;;;;3.50;1.70;;;13.90;51.10;;;;;;6133350;29;20050;-78
2021/05/04 03:04:29;;;;;;;6.88;2.10;;;13.80;51.20;;;;;;6117596;29;20507;-77
2021/05/04 03:07:31;;;;;;;3.92;2.20;;;13.80;51.50;;;;;;6117808;29;20115;-77
2021/05/04 03:10:32;;;;;;;3.28;2.13;;;13.70;51.70;;;;;;6116965;29;20360;-78
2021/05/04 03:13:33;;;;;;;8.48;2.67;;;13.70;51.80;;;;;;6134236;29;20054;-78
2021/05/04 03:16:34;;;;;;;7.70;2.40;;;13.70;52.10;;;;;;6132805;29;20455;-77
2021/05/04 03:19:35;;;;;;;5.60;2.38;;;13.70;52.60;;;;;;6117133;29;20024;-77
2021/05/04 03:22:37;;;;;;;4.82;2.67;;;13.70;52.90;;;;;;6133827;29;20458;-77
2021/05/04 03:25:40;;;;;;;3.35;2.42;;;13.70;53.30;;;;;;6116670;29;20031;-77
2021/05/04 03:28:43;;;;;;;4.03;2.08;;;13.60;53.40;;;;;;6133842;29;20091;-78
2021/05/04 03:31:44;;;;;;;4.30;1.95;;;13.60;53.50;;;;;;6115729;29;20388;-79
2021/05/04 03:34:45;;;;;;;6.90;2.58;;;13.60;53.40;;;;;;6116724;29;20119;-77
2021/05/04 03:37:47;;;;;;;4.85;2.25;;;13.50;53.40;;;;;;6100959;29;20031;-77
2021/05/04 03:40:48;;;;;;;3.38;1.80;;;13.50;53.70;;;;;;6116114;29;20023;-77
2021/05/04 03:43:49;;;;;;;7.22;2.30;;;13.50;53.90;;;;;;6116752;29;20415;-77
2021/05/04 03:46:50;;;;;;;5.45;2.17;;;13.40;54.20;;;;;;6100902;29;20063;-77
2021/05/04 03:49:51;;;;;;;3.13;1.92;;;13.40;54.40;;;;;;6115809;29;20031;-78
2021/05/04 03:52:53;;;;;;;4.78;2.83;;;13.40;54.50;;;;;;6116077;29;20172;-77
2021/05/04 03:55:54;;;;;;;2.95;2.17;;;13.30;54.70;;;;;;6132195;29;20073;-77
2021/05/04 03:58:55;;;;;;;3.65;2.10;;;13.30;54.70;;;;;;6117094;29;20034;-77
2021/05/04 04:01:56;;;;;;;6.55;2.80;;;13.40;54.90;;;;;;6132152;29;20080;-78
2021/05/04 04:04:57;;;;;;;3.10;2.45;;;13.30;54.90;;;;;;6116028;29;20035;-78
2021/05/04 04:07:58;;;;;;;4.18;2.42;;;13.30;55.10;;;;;;6115841;29;20471;-78
2021/05/04 04:10:59;;;;;;;3.75;2.67;;;13.30;55.10;;;;;;6115444;29;20068;-78
2021/05/04 04:14:01;;;;;;;3.92;2.33;;;13.30;55.10;;;;;;6132582;29;20024;-78
2021/05/04 04:17:02;;;;;;;6.28;3.10;;;13.30;55.20;;;;;;6115840;29;20045;-77
2021/05/04 04:24:26;;;;;;;5.68;2.90;;;13.10;55.30;;;;;;6135809;29;20450;-76
2021/05/04 04:27:27;;;;;;;8.18;2.80;;;13.10;55.20;;;;;;6132540;29;20031;-77
2021/05/04 04:30:28;;;;;;;3.15;2.40;;;13.10;55.30;;;;;;6132473;29;20042;-78
2021/05/04 04:33:29;;;;;;;4.65;2.67;;;13.10;55.30;;;;;;6133204;29;20036;-78
2021/05/04 04:36:30;;;;;;;3.15;2.55;;;13.10;55.40;;;;;;6133152;29;20134;-77
2021/05/04 04:39:32;;;;;;;3.00;2.30;;;13.10;55.40;;;;;;6117843;29;20154;-79
2021/05/04 04:42:33;;;;;;;5.05;2.90;;;13.10;55.70;;;;;;6100489;29;20058;-78
2021/05/04 04:45:34;;;;;;;6.40;3.50;;;13.00;55.70;;;;;;6133912;29;20031;-77
2021/05/04 04:48:35;;;;;;;5.38;3.17;;;13.00;55.80;;;;;;6132508;29;20028;-77
2021/05/04 04:51:37;;;;;;;12.57;2.97;;;13.00;55.90;;;;;;6131497;29;20063;-78
2021/05/04 04:54:38;;;;;;;5.82;3.10;;;13.00;55.90;;;;;;6114743;29;20055;-78
2021/05/04 04:57:39;;;;;;;6.50;2.95;;;13.00;56.00;;;;;;6131759;29;20019;-78
2021/05/04 05:00:40;;;;;;;3.83;2.45;;;13.10;56.00;;;;;;6132017;29;20024;-77
2021/05/04 05:03:41;;;;;;;6.43;3.40;;;13.00;55.80;;;;;;6098587;29;20107;-77
2021/05/04 05:06:43;;;;;;;3.55;2.55;;;13.10;55.70;;;;;;6130909;29;20083;-78
2021/05/04 05:09:45;;;;;;;17.98;2.90;;;13.10;55.50;;;;;;6114861;29;20086;-77
2021/05/04 05:12:46;;;;;;;3.67;2.50;;;13.10;55.50;;;;;;6113670;29;20035;-77
2021/05/04 05:15:49;;;;;;;5.13;2.72;;;13.10;55.40;;;;;;6114383;29;20086;-78
2021/05/04 05:18:54;;;;;;;4.88;2.83;;;13.10;55.40;;;;;;6105539;29;20036;-77
2021/05/04 05:21:55;;;;;;;6.35;2.53;;;13.10;55.30;;;;;;6131535;29;20451;-78
2021/05/04 05:24:56;;;;;;;6.85;2.78;;;13.10;55.10;;;;;;6131707;29;20435;-78
2021/05/04 05:27:59;;;;;;;3.95;2.90;;;13.20;54.70;;;;;;6130452;29;20423;-78
2021/05/04 05:31:00;;;;;;;4.05;2.92;;;13.20;54.60;;;;;;6130385;29;20031;-79
2021/05/04 05:34:01;;;;;;;4.70;2.88;;;13.20;54.80;;;;;;6114069;29;20165;-78
2021/05/04 05:37:03;;;;;;;4.00;2.70;;;13.20;54.90;;;;;;6130797;29;20131;-78
2021/05/04 05:40:04;;;;;;;4.22;2.88;;;13.30;55.00;;;;;;6114134;29;20051;-79
2021/05/04 05:43:05;;;;;;;4.80;3.10;;;13.30;54.90;;;;;;6117945;29;20443;-78
2021/05/04 05:46:07;;;;;;;9.52;3.22;;;13.30;54.60;;;;;;6129886;29;20070;-78
2021/05/04 05:49:10;;;;;;;6.30;2.80;;;13.30;54.30;;;;;;6130358;29;20352;-78
2021/05/04 05:52:11;;;;;;;5.95;3.20;;;13.30;54.20;;;;;;6113500;29;20035;-78
2021/05/04 05:55:12;;;;;;;4.43;3.13;;;13.40;54.20;;;;;;6113674;29;20053;-78
2021/05/04 05:58:13;;;;;;;4.35;2.92;;;13.40;54.00;;;;;;6113111;29;20036;-78
2021/05/04 06:01:14;;;;;;;6.72;2.72;;;13.40;53.70;;;;;;6128946;29;20031;-78
2021/05/04 06:04:19;;;;;;;10.73;3.50;;;13.40;53.40;;;;;;6113946;29;20047;-77
2021/05/04 06:07:23;;;;;;;10.20;3.83;;;13.50;53.40;;;;;;6113280;29;20165;-78
2021/05/04 06:10:24;;;;;;;4.65;2.75;;;13.50;53.30;;;;;;6110553;29;20042;-78
2021/05/04 06:13:25;;;;;;;6.38;3.00;;;13.60;53.30;;;;;;6113464;29;20032;-78
2021/05/04 06:16:31;;;;;;;5.38;3.17;;;13.70;52.80;;;;;;6112298;29;20142;-78
2021/05/04 06:19:34;;;;;;;8.50;2.67;;;13.70;52.50;;;;;;6114507;29;20485;-78
2021/05/04 06:22:36;;;;;;;12.18;3.28;;;13.70;52.40;;;;;;6113857;29;20086;-79
2021/05/04 06:25:37;;;;;;;4.90;3.10;;;13.80;52.40;;;;;;6113825;29;20063;-78
2021/05/04 06:28:46;;;;;;;5.63;3.60;;;13.90;52.30;;;;;;6112761;29;20032;-79
2021/05/04 06:32:02;;;;;;;6.80;2.78;;;14.00;52.30;;;;;;6112164;29;20115;-79
2021/05/04 06:35:05;;;;;;;9.40;3.70;;;14.10;52.10;;;;;;6129125;29;20122;-78
2021/05/04 06:38:08;;;;;;;8.45;4.03;;;14.20;52.00;;;;;;6114010;29;20028;-77
2021/05/04 06:41:09;;;;;;;6.35;3.17;;;14.30;51.90;;;;;;6128131;29;20028;-77
2021/05/04 06:44:13;;;;;;;5.80;3.67;;;14.40;51.70;;;;;;6128621;29;20367;-78
2021/05/04 06:47:15;;;;;;;12.70;4.40;;;14.60;51.70;;;;;;6128510;29;20036;-77
2021/05/04 06:50:16;;;;;;;15.13;4.22;;;14.70;51.40;;;;;;6097052;29;20367;-77
2021/05/04 06:53:18;;;;;;;7.38;3.55;;;14.90;51.20;;;;;;6129482;29;20051;-78
2021/05/04 06:56:20;;;;;;;8.48;4.13;;;15.10;50.80;;;;;;6112092;29;20036;-79
2021/05/04 06:59:21;;;;;;;6.22;2.97;;;15.20;50.40;;;;;;6112196;29;20063;-78
2021/05/04 07:02:22;;;;;;;8.75;3.38;;;15.30;50.20;;;;;;6128364;29;20059;-78
2021/05/04 07:05:23;;;;;;;8.50;3.50;;;15.40;49.70;;;;;;6113401;29;20031;-77
2021/05/04 07:08:24;;;;;;;19.73;4.72;;;15.50;49.30;;;;;;6097221;29;20429;-77
2021/05/04 07:11:26;;;;;;;11.55;3.20;;;15.70;49.30;;;;;;6112865;29;20472;-78
2021/05/04 07:14:27;;;;;;;11.27;3.55;;;15.60;49.10;;;;;;6112901;29;20360;-77
2021/05/04 07:17:29;;;;;;;24.17;4.53;;;15.90;49.00;;;;;;6113252;29;20043;-77
2021/05/04 07:20:30;;;;;;;7.90;3.40;;;16.10;49.10;;;;;;6112034;29;20339;-78
2021/05/04 07:23:33;;;;;;;8.40;3.30;;;16.20;48.90;;;;;;6113191;29;20031;-78
2021/05/04 07:26:35;;;;;;;11.02;3.97;;;16.30;48.50;;;;;;6112904;29;20048;-78
2021/05/04 07:29:36;;;;;;;4.75;3.25;;;16.40;48.30;;;;;;6117330;29;20063;-78
2021/05/04 07:32:37;;;;;;;12.80;3.58;;;16.50;48.30;;;;;;6117423;29;20036;-78
2021/05/04 07:35:39;;;;;;;4.15;3.22;;;16.60;48.10;;;;;;6116615;29;20062;-78
2021/05/04 07:38:40;;;;;;;8.82;3.33;;;16.70;47.90;;;;;;6132630;29;20094;-78
2021/05/04 07:41:41;;;;;;;6.28;3.38;;;16.80;47.80;;;;;;6117206;29;20028;-77
2021/05/04 07:44:43;;;;;;;8.02;3.72;;;16.80;47.80;;;;;;6116477;29;20114;-78
2021/05/04 07:47:49;;;;;;;5.47;3.05;;;17.00;47.70;;;;;;6117304;29;20066;-78
2021/05/04 07:50:52;;;;;;;6.68;3.08;;;17.20;47.40;;;;;;6101782;29;20036;-78
2021/05/04 07:53:53;;;;;;;5.05;3.08;;;17.50;46.80;;;;;;6118519;29;20570;-79
2021/05/04 07:56:54;;;;;;;5.70;3.20;;;17.60;46.50;;;;;;6118473;29;20024;-78
2021/05/04 07:59:55;;;;;;;9.68;3.30;;;17.70;46.20;;;;;;6118630;29;20028;-77
2021/05/04 08:02:56;;;;;;;8.20;4.68;;;17.80;45.90;;;;;;6118193;29;20055;-79
2021/05/04 08:05:57;;;;;;;10.63;3.50;;;18.00;45.60;;;;;;6117739;29;20435;-78
2021/05/04 08:08:59;;;;;;;5.63;3.53;;;18.10;45.40;;;;;;6115767;29;20089;-77
2021/05/04 08:12:02;;;;;;;5.60;2.72;;;18.20;45.10;;;;;;6115648;29;20039;-79
2021/05/04 08:15:06;;;;;;;10.52;4.55;;;18.40;44.90;;;;;;6131156;29;20028;-80
2021/05/04 08:18:12;;;;;;;19.02;3.83;;;18.60;44.60;;;;;;6131330;29;20101;-79
2021/05/04 08:21:13;;;;;;;25.38;4.28;;;18.70;44.30;;;;;;6115605;29;20439;-78
2021/05/04 08:24:15;;;;;;;22.15;3.75;;;18.90;44.00;;;;;;6100107;29;20043;-78
2021/05/04 08:27:16;;;;;;;8.32;3.40;;;19.20;43.40;;;;;;6099771;29;20067;-78
2021/05/04 08:30:17;;;;;;;17.30;4.80;;;19.40;42.90;;;;;;6114895;29;20126;-78
2021/05/04 08:33:19;;;;;;;4.47;2.80;;;19.50;42.30;;;;;;6115393;29;20027;-77
2021/05/04 08:36:20;;;;;;;6.35;2.75;;;19.70;42.10;;;;;;6115011;29;20042;-78
2021/05/04 08:39:21;;;;;;;269.13;20.52;;;19.80;41.80;;;;;;6114841;29;20111;-78
2021/05/04 08:42:28;;;;;;;22.35;3.45;;;19.90;41.30;;;;;;6131844;29;20063;-80
2021/05/04 08:45:33;;;;;;;112.03;11.02;;;20.10;41.00;;;;;;6114669;29;20032;-78
2021/05/04 08:48:34;;;;;;;6.72;2.72;;;20.20;40.50;;;;;;6131070;29;20158;-79
2021/05/04 08:51:37;;;;;;;8.38;2.45;;;20.40;39.90;;;;;;6115206;29;20036;-78
2021/05/04 08:54:40;;;;;;;10.02;2.40;;;20.50;39.30;;;;;;6099580;29;20123;-78
2021/05/04 08:57:41;;;;;;;5.50;2.38;;;20.70;39.00;;;;;;6115171;29;20053;-78
2021/05/04 09:00:42;;;;;;;124.80;10.23;;;20.90;38.60;;;;;;6099200;29;20419;-78
2021/05/04 09:03:46;;;;;;;5.82;2.42;;;21.10;38.20;;;;;;6115138;29;20055;-78
2021/05/04 09:06:49;;;;;;;3.90;1.70;;;21.20;37.80;;;;;;6100290;29;20032;-78
2021/05/04 09:10:13;;;;;;;21.60;4.07;;;21.30;37.30;;;;;;6134592;29;20050;-79
2021/05/04 09:13:20;;;;;;;4.82;1.90;;;21.30;36.70;;;;;;6142660;29;20035;-78
2021/05/04 09:16:31;;;;;;;5.57;1.58;;;21.50;36.30;;;;;;6119171;29;20031;-78
2021/05/04 09:22:45;;;;;;;7.78;2.20;;;21.60;35.60;;;;;;6127089;29;20089;-79
2021/05/04 09:25:47;;;;;;;6.28;1.73;;;21.60;35.50;;;;;;6103263;29;20144;-77
2021/05/04 09:28:53;;;;;;;2.80;1.80;;;21.60;35.40;;;;;;6132843;29;20074;-79
2021/05/04 09:32:06;;;;;;;4.55;2.33;;;21.60;35.10;;;;;;6114763;29;20036;-78
2021/05/04 09:35:09;;;;;;;38.47;4.85;;;21.60;35.20;;;;;;6117522;29;20098;-77
2021/05/04 09:38:13;;;;;;;4.00;2.13;;;21.80;35.20;;;;;;6115287;29;20039;-78
2021/05/04 09:42:13;;;;;;;7.80;2.45;;;21.90;35.10;;;;;;6115686;29;20040;-79
2021/05/04 09:45:23;;;;;;;10.27;2.30;;;22.00;35.20;;;;;;6106279;29;20040;-78
2021/05/04 09:48:30;;;;;;;5.70;1.90;;;22.00;35.10;;;;;;6088929;29;20383;-79
2021/05/04 09:51:31;;;;;;;3.00;2.20;;;22.00;35.30;;;;;;6088604;29;20047;-78
2021/05/04 09:54:35;;;;;;;7.15;2.17;;;22.00;35.60;;;;;;6098035;29;20047;-79
2021/05/04 09:57:43;;;;;;;3.45;2.00;;;22.00;35.70;;;;;;6090180;29;20043;-80
2021/05/04 10:00:44;;;;;;;5.90;2.95;;;21.90;35.70;;;;;;6105004;29;20110;-78
2021/05/04 10:03:50;;;;;;;5.78;2.45;;;21.80;35.80;;;;;;6104394;29;20122;-78
2021/05/04 10:06:51;;;;;;;17.20;3.08;;;21.70;35.90;;;;;;6104496;29;20111;-80
2021/05/04 10:09:54;;;;;;;7.05;2.25;;;21.60;36.10;;;;;;6104248;29;20487;-78
2021/05/04 10:12:56;;;;;;;7.60;1.85;;;21.50;36.10;;;;;;6103313;29;20032;-78
2021/05/04 10:15:58;;;;;;;14.85;2.30;;;21.50;36.00;;;;;;6097466;29;20147;-79
2021/05/04 10:19:05;;;;;;;4.22;2.08;;;21.40;35.80;;;;;;6113394;29;20035;-79
2021/05/04 10:22:06;;;;;;;11.20;2.60;;;21.30;36.10;;;;;;6110739;29;20028;-78
2021/05/04 10:25:15;;;;;;;6.47;2.17;;;21.30;36.30;;;;;;6097224;29;20051;-78
2021/05/04 10:28:16;;;;;;;4.05;1.77;;;21.30;36.40;;;;;;6113034;29;20431;-78
2021/05/04 10:31:19;;;;;;;9.85;2.58;;;21.20;36.40;;;;;;6141932;29;20027;-78
2021/05/04 10:34:32;;;;;;;8.88;2.42;;;21.20;36.60;;;;;;6112799;29;20039;-79
2021/05/04 10:37:35;;;;;;;7.43;2.45;;;21.20;36.90;;;;;;6112467;29;20047;-80
2021/05/04 10:40:40;;;;;;;4.60;1.90;;;21.20;37.00;;;;;;6112775;29;20028;-79
2021/05/04 10:43:42;;;;;;;6.13;1.95;;;21.30;36.40;;;;;;6113719;29;20024;-79
2021/05/04 10:46:43;;;;;;;3.88;1.90;;;21.40;35.80;;;;;;6112789;29;20039;-79
2021/05/04 10:49:56;;;;;;;4.32;2.13;;;21.60;35.30;;;;;;6112516;29;20032;-79
2021/05/04 10:53:00;;;;;;;6.68;2.38;;;21.70;35.20;;;;;;6128462;29;20087;-79
2021/05/04 10:56:01;;;;;;;4.88;2.05;;;21.80;35.30;;;;;;6129441;29;20549;-78
2021/05/04 10:59:04;;;;;;;9.82;2.65;;;21.80;35.50;;;;;;6129688;29;20046;-78
2021/05/04 11:02:35;;;;;;;7.75;2.78;;;21.90;35.70;;;;;;6115196;29;20047;-79
2021/05/04 11:05:48;;;;;;;6.85;2.30;;;21.90;35.80;;;;;;6063785;29;20041;-78
2021/05/04 11:08:49;;;;;;;6.88;3.20;;;21.90;35.80;;;;;;6053677;29;20076;-79
2021/05/04 11:11:51;;;;;;;5.20;1.60;;;21.90;35.60;;;;;;6026568;29;20033;-79
2021/05/04 11:15:23;;;;;;;7.13;1.90;;;22.00;35.30;;;;;;6046266;29;20045;-78
2021/05/04 11:19:07;;;;;;;10.13;2.22;;;22.10;34.60;;;;;;6062300;29;20445;-81
2021/05/04 11:22:16;;;;;;;3.92;2.03;;;22.20;34.60;;;;;;6063044;29;20485;-79
2021/05/04 11:25:32;;;;;;;2.90;1.80;;;22.30;34.80;;;;;;6046826;29;20544;-78
2021/05/04 11:32:55;;;;;;;8.02;2.15;;;22.60;35.10;;;;;;6057253;29;20021;-78
2021/05/04 11:35:58;;;;;;;5.53;2.42;;;22.80;34.90;;;;;;6036508;29;20045;-77
2021/05/04 11:39:04;;;;;;;4.00;1.75;;;23.00;34.80;;;;;;6030044;29;20449;-77
2021/05/04 11:42:05;;;;;;;6.95;1.98;;;23.20;34.30;;;;;;6090119;29;20050;-79
2021/05/04 11:45:14;;;;;;;5.25;1.98;;;23.40;33.60;;;;;;6116352;29;20042;-79
2021/05/04 11:48:18;;;;;;;9.68;1.73;;;23.60;33.20;;;;;;6132061;29;20031;-78
2021/05/04 11:51:19;;;;;;;4.60;2.00;;;23.80;33.30;;;;;;6133648;29;20035;-79
2021/05/04 11:54:28;;;;;;;4.07;2.03;;;24.20;33.10;;;;;;6115723;29;20035;-79
2021/05/04 11:57:29;;;;;;;;;;;24.50;33.00;;;;;;6116774;29;20027;-79
2021/05/04 12:00:37;;;;;;;2.45;1.60;;;25.00;32.40;;;;;;6116519;29;19910;-78
2021/05/04 12:03:38;;;;;;;4.27;1.37;;;25.30;31.90;;;;;;6119031;29;20136;-78
2021/05/04 12:06:47;;;;;;;1.90;1.35;;;25.40;31.40;;;;;;6098807;29;20107;-78
2021/05/04 12:09:48;;;;;;;3.80;1.80;;;25.40;31.30;;;;;;6107705;29;20032;-77
2021/05/04 12:12:51;;;;;;;1.95;1.40;;;25.60;30.90;;;;;;6107724;29;20110;-78
2021/05/04 12:16:00;;;;;;;6.32;1.95;;;25.60;30.60;;;;;;6101696;29;20328;-79
2021/05/04 12:19:02;;;;;;;7.07;1.52;;;25.40;30.60;;;;;;6094273;29;20032;-77
2021/05/04 12:22:06;;;;;;;2.75;1.38;;;25.30;30.60;;;;;;6084401;29;20029;-78
2021/05/04 12:25:08;;;;;;;5.45;1.55;;;25.10;31.00;;;;;;6084473;29;20160;-78
2021/05/04 12:28:17;;;;;;;4.80;1.50;;;25.00;31.10;;;;;;6095339;29;20028;-77
2021/05/04 12:31:23;;;;;;;4.35;1.23;;;24.90;31.10;;;;;;6123988;29;20036;-78
2021/05/04 12:34:25;;;;;;;1.65;1.17;;;25.20;30.60;;;;;;6107664;29;20364;-77
2021/05/04 12:37:29;;;;;;;5.05;1.80;;;25.90;30.00;;;;;;6107553;29;20392;-78
2021/05/04 12:40:31;;;;;;;3.28;1.33;;;26.90;29.20;;;;;;6108066;29;20024;-78
2021/05/04 12:43:34;;;;;;;2.25;1.40;;;28.00;27.80;;;;;;6083783;29;20127;-78
2021/05/04 12:47:03;;;;;;;2.72;1.27;;;29.00;26.40;;;;;;6109127;29;20043;-79
2021/05/04 12:50:05;;;;;;;2.42;1.40;;;29.90;25.30;;;;;;6060299;29;20052;-78
2021/05/04 12:53:08;;;;;;;7.30;1.83;;;30.80;24.50;;;;;;6074447;29;20432;-78
2021/05/04 12:56:15;;;;;;;5.63;1.10;;;31.70;22.30;;;;;;6052414;29;20429;-79
2021/05/04 12:59:26;;;;;;;3.20;1.50;;;32.60;21.20;;;;;;6090052;29;20036;-79
2021/05/04 13:02:31;;;;;;;4.22;1.25;;;33.60;19.90;;;;;;6104100;29;20139;-78
2021/05/04 13:05:32;;;;;;;3.13;1.02;;;33.40;19.70;;;;;;6069454;29;20041;-78
2021/05/04 13:08:50;;;;;;;10.65;1.50;;;33.20;19.40;;;;;;6088901;29;20047;-78
2021/05/04 13:18:59;;;;;;;;;;;;;;;;;;;;;
2021/05/04 13:32:24;;;;;;;3.38;0.93;;;32.70;19.10;;;;;;6099639;29;20092;-77
2021/05/04 13:35:28;;;;;;;9.10;1.45;;;33.40;18.80;;;;;;6093533;29;20047;-79
2021/05/04 13:48:25;;;;;;;3.03;1.33;;;34.80;17.20;;;;;;6107381;29;20094;-76
2021/05/04 13:51:26;;;;;;;3.50;1.58;;;34.80;17.20;;;;;;6086752;29;20032;-78
2021/05/04 13:54:27;;;;;;;3.13;1.15;;;35.70;16.70;;;;;;6094622;29;20078;-78
2021/05/04 13:57:28;;;;;;;1.33;0.90;;;36.60;16.30;;;;;;6086280;29;20028;-79
2021/05/04 14:27:02;;;;;;;1.38;0.90;;;37.20;14.30;;;;;;6070597;29;20045;-78
2021/05/04 14:30:10;;;;;;;0.80;0.75;;;37.10;14.20;;;;;;6078304;29;20040;-77
2021/05/04 14:33:11;;;;;;;1.05;0.95;;;37.20;14.10;;;;;;6057386;29;20036;-78
2021/05/04 15:02:14;;;;;;;11.57;1.83;;;29.90;18.30;;;;;;6117519;29;20420;-78
2021/05/04 15:05:19;;;;;;;4.80;2.63;;;29.60;18.60;;;;;;6102325;29;20031;-79
2021/05/04 15:08:20;;;;;;;2.55;1.55;;;29.20;18.70;;;;;;6118521;29;20403;-78
2021/05/04 15:11:22;;;;;;;3.60;1.20;;;28.80;18.90;;;;;;6118344;29;20034;-80
2021/05/04 15:17:44;;;;;;;1.05;0.95;;;28.10;19.50;;;;;;6118594;29;20027;-79
2021/05/04 15:23:46;;;;;;;2.20;1.10;;;27.70;20.00;;;;;;6137059;29;20043;-79
2021/05/04 15:26:48;;;;;;;1.58;0.90;;;27.50;20.60;;;;;;6122849;29;20031;-78
2021/05/04 15:29:50;;;;;;;1.35;0.90;;;27.40;20.40;;;;;;6103640;29;20046;-78
2021/05/04 15:33:03;;;;;;;1.10;0.75;;;27.10;20.50;;;;;;6117876;29;20039;-79
2021/05/04 15:36:04;;;;;;;1.83;0.98;;;27.00;20.70;;;;;;6105353;29;20035;-78
2021/05/04 15:39:09;;;;;;;2.28;1.05;;;26.80;20.80;;;;;;6133960;29;20035;-78
2021/05/04 15:42:12;;;;;;;2.10;1.50;;;26.70;20.90;;;;;;6132625;29;20086;-79
2021/05/04 15:45:14;;;;;;;2.10;1.10;;;26.70;21.10;;;;;;6118173;29;20036;-78
2021/05/04 15:48:30;;;;;;;1.00;0.80;;;26.60;21.20;;;;;;6132682;29;20032;-81
2021/05/04 16:08:31;;;;;;;1.90;1.00;;;28.50;20.00;;;;;;6134269;29;20066;-78
2021/05/04 16:11:32;;;;;;;4.63;2.33;;;28.40;20.30;;;;;;6131787;29;20038;-78
2021/05/04 16:14:33;;;;;;;2.08;1.52;;;28.00;20.40;;;;;;6116531;29;20506;-79
2021/05/04 16:17:34;;;;;;;1.60;1.15;;;27.70;20.60;;;;;;6099985;29;20031;-81
2021/05/04 16:24:10;;;;;;;1.52;0.90;;;27.20;21.20;;;;;;6115769;29;20501;-79
2021/05/04 16:27:23;;;;;;;1.35;1.00;;;26.90;21.50;;;;;;6115808;29;20063;-78
2021/05/04 16:30:24;;;;;;;1.55;1.02;;;26.80;21.60;;;;;;6131578;29;20028;-79
2021/05/04 16:33:26;;;;;;;1.83;1.15;;;26.70;21.70;;;;;;6116510;29;20356;-80
2021/05/04 16:36:28;;;;;;;2.05;1.23;;;26.60;21.80;;;;;;6116256;29;20036;-78
2021/05/04 16:39:29;;;;;;;2.42;1.48;;;26.50;21.90;;;;;;6131681;29;20049;-78
2021/05/04 16:42:32;;;;;;;2.42;1.17;;;26.40;21.90;;;;;;6130977;29;20055;-78
2021/05/04 16:45:35;;;;;;;1.98;1.00;;;26.40;22.00;;;;;;6115161;29;20040;-78
2021/05/04 16:48:40;;;;;;;4.60;1.20;;;26.20;22.10;;;;;;6114703;29;20427;-79
2021/05/04 16:51:41;;;;;;;1.70;1.40;;;26.10;22.30;;;;;;6130737;29;20079;-77
2021/05/04 16:54:43;;;;;;;1.75;1.10;;;25.90;22.40;;;;;;6097264;29;20035;-78
2021/05/04 16:57:44;;;;;;;2.22;1.20;;;25.80;22.50;;;;;;6130491;29;20036;-77
2021/05/04 17:00:47;;;;;;;2.55;1.38;;;25.80;22.60;;;;;;6097962;29;20105;-77
2021/05/04 17:03:48;;;;;;;1.65;1.20;;;25.70;22.70;;;;;;6114151;29;20048;-78
2021/05/04 17:06:54;;;;;;;1.42;1.20;;;25.60;22.80;;;;;;6113107;29;20054;-77
2021/05/04 17:12:58;;;;;;;19.05;7.63;;;25.60;23.00;;;;;;6130846;29;20031;-78
2021/05/04 17:15:59;;;;;;;2.83;1.85;;;25.50;23.20;;;;;;6097908;29;20035;-78
2021/05/04 17:19:00;;;;;;;2.65;1.40;;;25.40;23.30;;;;;;6098116;29;20340;-78
2021/05/04 17:22:03;;;;;;;1.35;1.20;;;25.30;23.30;;;;;;6114998;29;20043;-77
2021/05/04 17:25:04;;;;;;;1.80;1.08;;;25.30;23.40;;;;;;6114399;29;20103;-78
2021/05/04 17:28:05;;;;;;;1.65;1.20;;;25.30;23.40;;;;;;6129975;29;20068;-78
2021/05/04 17:31:06;;;;;;;1.10;1.00;;;25.40;23.50;;;;;;6122079;29;20086;-77
2021/05/04 17:34:08;;;;;;;1.20;0.82;;;25.40;23.60;;;;;;6120213;29;20027;-79
2021/05/04 17:37:09;;;;;;;1.45;1.00;;;25.40;23.70;;;;;;6117212;29;20133;-78
2021/05/04 17:40:11;;;;;;;1.15;1.05;;;25.30;23.60;;;;;;6129848;29;20574;-77
2021/05/04 17:43:12;;;;;;;2.95;1.20;;;25.20;23.70;;;;;;6130195;29;20482;-77
2021/05/04 17:46:13;;;;;;;1.77;1.10;;;25.10;23.80;;;;;;6120033;29;20032;-79
2021/05/04 17:49:15;;;;;;;1.30;1.20;;;25.00;23.90;;;;;;6140660;29;20023;-78
2021/05/04 17:52:16;;;;;;;2.83;1.00;;;24.90;24.00;;;;;;6106126;29;20067;-79
2021/05/04 17:55:17;;;;;;;2.88;1.20;;;24.90;24.20;;;;;;6104534;29;20046;-79
2021/05/04 17:58:19;;;;;;;1.63;1.20;;;24.80;24.40;;;;;;6115676;29;20131;-79